sensor_id;sensor_type;location;lat;lon;timestamp;P1;durP1;ratioP1;P2;durP2;ratioP2
79403;SDS011;68858;48.642;9.142;2023-10-31T00:01:43;0.70;;;0.70;;
79403;SDS011;68858;48.642;9.142;2023-10-31T00:04:09;0.53;;;0.53;;
79403;SDS011;68858;48.642;9.142;2023-10-31T00:06:34;0.73;;;0.60;;
79403;SDS011;68858;48.642;9.142;2023-10-31T00:09:00;0.50;;;0.50;;
79403;SDS011;68858;48.642;9.142;2023-10-31T00:11:26;0.50;;;0.50;;
79403;SDS011;68858;48.642;9.142;2023-10-31T00:13:51;0.40;;;0.40;;
79403;SDS011;68858;48.642;9.142;2023-10-31T00:16:16;0.40;;;0.40;;
79403;SDS011;68858;48.642;9.142;2023-10-31T00:18:42;0.40;;;0.40;;
79403;SDS011;68858;48.642;9.142;2023-10-31T00:21:07;0.47;;;0.33;;
79403;SDS011;68858;48.642;9.142;2023-10-31T00:23:33;0.40;;;0.40;;
79403;SDS011;68858;48.642;9.142;2023-10-31T00:26:03;0.20;;;0.20;;
79403;SDS011;68858;48.642;9.142;2023-10-31T00:28:29;0.50;;;0.33;;
79403;SDS011;68858;48.642;9.142;2023-10-31T00:30:54;0.70;;;0.50;;
79403;SDS011;68858;48.642;9.142;2023-10-31T00:33:20;0.40;;;0.30;;
79403;SDS011;68858;48.642;9.142;2023-10-31T00:35:46;0.27;;;0.23;;
79403;SDS011;68858;48.642;9.142;2023-10-31T00:38:11;0.40;;;0.30;;
79403;SDS011;68858;48.642;9.142;2023-10-31T00:40:36;0.20;;;0.20;;
79403;SDS011;68858;48.642;9.142;2023-10-31T00:43:02;0.30;;;0.30;;
79403;SDS011;68858;48.642;9.142;2023-10-31T00:45:27;0.30;;;0.27;;
79403;SDS011;68858;48.642;9.142;2023-10-31T00:47:53;0.23;;;0.23;;
79403;SDS011;68858;48.642;9.142;2023-10-31T00:50:18;1.03;;;0.60;;
79403;SDS011;68858;48.642;9.142;2023-10-31T00:52:43;0.27;;;0.20;;
79403;SDS011;68858;48.642;9.142;2023-10-31T00:55:10;0.73;;;0.43;;
79403;SDS011;68858;48.642;9.142;2023-10-31T00:57:37;0.50;;;0.47;;
79403;SDS011;68858;48.642;9.142;2023-10-31T01:00:02;0.73;;;0.30;;
79403;SDS011;68858;48.642;9.142;2023-10-31T01:02:28;0.30;;;0.30;;
79403;SDS011;68858;48.642;9.142;2023-10-31T01:04:53;0.43;;;0.40;;
79403;SDS011;68858;48.642;9.142;2023-10-31T01:07:18;0.43;;;0.30;;
79403;SDS011;68858;48.642;9.142;2023-10-31T01:09:44;0.57;;;0.30;;
79403;SDS011;68858;48.642;9.142;2023-10-31T01:12:09;1.67;;;0.30;;
79403;SDS011;68858;48.642;9.142;2023-10-31T01:14:37;0.43;;;0.43;;
79403;SDS011;68858;48.642;9.142;2023-10-31T01:17:04;0.70;;;0.37;;
79403;SDS011;68858;48.642;9.142;2023-10-31T01:19:30;0.60;;;0.30;;
79403;SDS011;68858;48.642;9.142;2023-10-31T01:21:55;0.30;;;0.30;;
79403;SDS011;68858;48.642;9.142;2023-10-31T01:24:20;0.40;;;0.40;;
79403;SDS011;68858;48.642;9.142;2023-10-31T01:26:46;0.50;;;0.50;;
79403;SDS011;68858;48.642;9.142;2023-10-31T01:29:11;0.83;;;0.43;;
79403;SDS011;68858;48.642;9.142;2023-10-31T01:31:36;0.40;;;0.37;;
79403;SDS011;68858;48.642;9.142;2023-10-31T01:34:02;1.30;;;0.67;;
79403;SDS011;68858;48.642;9.142;2023-10-31T01:36:27;0.40;;;0.33;;
79403;SDS011;68858;48.642;9.142;2023-10-31T01:38:53;0.70;;;0.47;;
79403;SDS011;68858;48.642;9.142;2023-10-31T01:41:18;0.57;;;0.50;;
79403;SDS011;68858;48.642;9.142;2023-10-31T01:43:44;2.10;;;0.70;;
79403;SDS011;68858;48.642;9.142;2023-10-31T01:46:09;0.47;;;0.43;;
79403;SDS011;68858;48.642;9.142;2023-10-31T01:48:36;0.40;;;0.40;;
79403;SDS011;68858;48.642;9.142;2023-10-31T01:51:02;1.17;;;0.50;;
79403;SDS011;68858;48.642;9.142;2023-10-31T01:53:29;1.07;;;0.60;;
79403;SDS011;68858;48.642;9.142;2023-10-31T01:56:00;0.90;;;0.67;;
79403;SDS011;68858;48.642;9.142;2023-10-31T01:58:30;1.03;;;0.50;;
79403;SDS011;68858;48.642;9.142;2023-10-31T02:00:57;1.43;;;0.60;;
79403;SDS011;68858;48.642;9.142;2023-10-31T02:03:23;0.63;;;0.63;;
79403;SDS011;68858;48.642;9.142;2023-10-31T02:05:48;0.57;;;0.57;;
79403;SDS011;68858;48.642;9.142;2023-10-31T02:08:19;0.87;;;0.50;;
79403;SDS011;68858;48.642;9.142;2023-10-31T02:10:44;0.37;;;0.37;;
79403;SDS011;68858;48.642;9.142;2023-10-31T02:13:14;1.00;;;0.70;;
79403;SDS011;68858;48.642;9.142;2023-10-31T02:15:40;1.30;;;0.80;;
79403;SDS011;68858;48.642;9.142;2023-10-31T02:18:06;3.47;;;0.70;;
79403;SDS011;68858;48.642;9.142;2023-10-31T02:20:31;1.40;;;0.70;;
79403;SDS011;68858;48.642;9.142;2023-10-31T02:22:57;0.50;;;0.50;;
79403;SDS011;68858;48.642;9.142;2023-10-31T02:25:22;1.00;;;0.70;;
79403;SDS011;68858;48.642;9.142;2023-10-31T02:27:48;0.83;;;0.67;;
79403;SDS011;68858;48.642;9.142;2023-10-31T02:30:13;1.80;;;0.63;;
79403;SDS011;68858;48.642;9.142;2023-10-31T02:32:40;1.07;;;0.70;;
79403;SDS011;68858;48.642;9.142;2023-10-31T02:35:06;0.90;;;0.63;;
79403;SDS011;68858;48.642;9.142;2023-10-31T02:37:31;2.20;;;0.80;;
79403;SDS011;68858;48.642;9.142;2023-10-31T02:39:57;0.70;;;0.70;;
79403;SDS011;68858;48.642;9.142;2023-10-31T02:42:23;1.87;;;0.70;;
79403;SDS011;68858;48.642;9.142;2023-10-31T02:44:49;1.03;;;0.73;;
79403;SDS011;68858;48.642;9.142;2023-10-31T02:47:14;1.27;;;0.70;;
79403;SDS011;68858;48.642;9.142;2023-10-31T02:49:40;0.80;;;0.80;;
79403;SDS011;68858;48.642;9.142;2023-10-31T02:52:06;1.80;;;0.73;;
79403;SDS011;68858;48.642;9.142;2023-10-31T02:54:31;2.07;;;0.77;;
79403;SDS011;68858;48.642;9.142;2023-10-31T02:56:57;0.43;;;0.40;;
79403;SDS011;68858;48.642;9.142;2023-10-31T02:59:23;0.50;;;0.50;;
79403;SDS011;68858;48.642;9.142;2023-10-31T03:01:48;1.27;;;0.57;;
79403;SDS011;68858;48.642;9.142;2023-10-31T03:04:13;1.23;;;0.63;;
79403;SDS011;68858;48.642;9.142;2023-10-31T03:06:39;0.50;;;0.50;;
79403;SDS011;68858;48.642;9.142;2023-10-31T03:09:04;1.40;;;0.60;;
79403;SDS011;68858;48.642;9.142;2023-10-31T03:11:31;1.47;;;0.73;;
79403;SDS011;68858;48.642;9.142;2023-10-31T03:13:57;1.63;;;0.80;;
79403;SDS011;68858;48.642;9.142;2023-10-31T03:16:23;1.53;;;0.87;;
79403;SDS011;68858;48.642;9.142;2023-10-31T03:18:48;1.40;;;0.60;;
79403;SDS011;68858;48.642;9.142;2023-10-31T03:21:14;0.93;;;0.50;;
79403;SDS011;68858;48.642;9.142;2023-10-31T03:23:40;1.63;;;0.70;;
79403;SDS011;68858;48.642;9.142;2023-10-31T03:26:06;1.03;;;0.80;;
79403;SDS011;68858;48.642;9.142;2023-10-31T03:28:32;2.10;;;1.00;;
79403;SDS011;68858;48.642;9.142;2023-10-31T03:30:57;0.97;;;0.80;;
79403;SDS011;68858;48.642;9.142;2023-10-31T03:33:22;1.47;;;1.00;;
79403;SDS011;68858;48.642;9.142;2023-10-31T03:35:48;0.80;;;0.80;;
79403;SDS011;68858;48.642;9.142;2023-10-31T03:38:13;1.13;;;0.90;;
79403;SDS011;68858;48.642;9.142;2023-10-31T03:40:39;1.03;;;0.67;;
79403;SDS011;68858;48.642;9.142;2023-10-31T03:43:04;2.27;;;1.00;;
79403;SDS011;68858;48.642;9.142;2023-10-31T03:45:30;0.97;;;0.70;;
79403;SDS011;68858;48.642;9.142;2023-10-31T03:47:55;0.53;;;0.50;;
79403;SDS011;68858;48.642;9.142;2023-10-31T03:50:22;0.90;;;0.90;;
79403;SDS011;68858;48.642;9.142;2023-10-31T03:52:47;0.60;;;0.60;;
79403;SDS011;68858;48.642;9.142;2023-10-31T03:55:12;0.50;;;0.50;;
79403;SDS011;68858;48.642;9.142;2023-10-31T03:57:38;0.97;;;0.67;;
79403;SDS011;68858;48.642;9.142;2023-10-31T04:00:03;1.70;;;0.50;;
79403;SDS011;68858;48.642;9.142;2023-10-31T04:02:32;0.70;;;0.70;;
79403;SDS011;68858;48.642;9.142;2023-10-31T04:04:58;1.63;;;0.60;;
79403;SDS011;68858;48.642;9.142;2023-10-31T04:07:23;1.80;;;0.70;;
79403;SDS011;68858;48.642;9.142;2023-10-31T04:09:49;0.90;;;0.50;;
79403;SDS011;68858;48.642;9.142;2023-10-31T04:12:14;1.53;;;0.70;;
79403;SDS011;68858;48.642;9.142;2023-10-31T04:14:40;1.23;;;0.63;;
79403;SDS011;68858;48.642;9.142;2023-10-31T04:17:05;0.67;;;0.60;;
79403;SDS011;68858;48.642;9.142;2023-10-31T04:19:30;1.10;;;0.63;;
79403;SDS011;68858;48.642;9.142;2023-10-31T04:21:56;1.27;;;0.57;;
79403;SDS011;68858;48.642;9.142;2023-10-31T04:24:22;3.37;;;0.87;;
79403;SDS011;68858;48.642;9.142;2023-10-31T04:26:48;1.60;;;0.60;;
79403;SDS011;68858;48.642;9.142;2023-10-31T04:29:13;1.00;;;0.90;;
79403;SDS011;68858;48.642;9.142;2023-10-31T04:31:39;0.97;;;0.87;;
79403;SDS011;68858;48.642;9.142;2023-10-31T04:34:04;0.80;;;0.80;;
79403;SDS011;68858;48.642;9.142;2023-10-31T04:36:29;1.20;;;1.10;;
79403;SDS011;68858;48.642;9.142;2023-10-31T04:38:57;2.40;;;0.80;;
79403;SDS011;68858;48.642;9.142;2023-10-31T04:41:22;2.07;;;0.97;;
79403;SDS011;68858;48.642;9.142;2023-10-31T04:43:47;1.43;;;0.70;;
79403;SDS011;68858;48.642;9.142;2023-10-31T04:46:13;1.00;;;0.87;;
79403;SDS011;68858;48.642;9.142;2023-10-31T04:48:39;1.37;;;0.87;;
79403;SDS011;68858;48.642;9.142;2023-10-31T04:51:05;2.20;;;0.80;;
79403;SDS011;68858;48.642;9.142;2023-10-31T04:53:30;0.90;;;0.53;;
79403;SDS011;68858;48.642;9.142;2023-10-31T04:55:57;0.60;;;0.60;;
79403;SDS011;68858;48.642;9.142;2023-10-31T04:58:23;1.27;;;0.57;;
79403;SDS011;68858;48.642;9.142;2023-10-31T05:00:48;2.07;;;0.70;;
79403;SDS011;68858;48.642;9.142;2023-10-31T05:03:14;0.83;;;0.57;;
79403;SDS011;68858;48.642;9.142;2023-10-31T05:05:40;0.93;;;0.70;;
79403;SDS011;68858;48.642;9.142;2023-10-31T05:08:05;1.90;;;0.80;;
79403;SDS011;68858;48.642;9.142;2023-10-31T05:10:31;0.60;;;0.60;;
79403;SDS011;68858;48.642;9.142;2023-10-31T05:12:56;1.37;;;0.80;;
79403;SDS011;68858;48.642;9.142;2023-10-31T05:15:22;1.20;;;0.70;;
79403;SDS011;68858;48.642;9.142;2023-10-31T05:17:47;2.63;;;0.90;;
79403;SDS011;68858;48.642;9.142;2023-10-31T05:20:13;0.67;;;0.67;;
79403;SDS011;68858;48.642;9.142;2023-10-31T05:22:40;0.87;;;0.87;;
79403;SDS011;68858;48.642;9.142;2023-10-31T05:25:06;1.53;;;0.70;;
79403;SDS011;68858;48.642;9.142;2023-10-31T05:27:31;1.50;;;0.83;;
79403;SDS011;68858;48.642;9.142;2023-10-31T05:29:57;0.73;;;0.70;;
79403;SDS011;68858;48.642;9.142;2023-10-31T05:32:22;1.17;;;0.80;;
79403;SDS011;68858;48.642;9.142;2023-10-31T05:34:48;0.70;;;0.70;;
79403;SDS011;68858;48.642;9.142;2023-10-31T05:37:13;0.67;;;0.53;;
79403;SDS011;68858;48.642;9.142;2023-10-31T05:39:39;1.50;;;0.80;;
79403;SDS011;68858;48.642;9.142;2023-10-31T05:42:04;0.83;;;0.57;;
79403;SDS011;68858;48.642;9.142;2023-10-31T05:44:29;1.53;;;0.70;;
79403;SDS011;68858;48.642;9.142;2023-10-31T05:46:55;1.07;;;0.70;;
79403;SDS011;68858;48.642;9.142;2023-10-31T05:49:20;2.07;;;0.90;;
79403;SDS011;68858;48.642;9.142;2023-10-31T05:51:52;0.70;;;0.70;;
79403;SDS011;68858;48.642;9.142;2023-10-31T05:54:18;0.80;;;0.80;;
79403;SDS011;68858;48.642;9.142;2023-10-31T05:56:43;1.13;;;0.70;;
79403;SDS011;68858;48.642;9.142;2023-10-31T05:59:10;1.90;;;0.90;;
79403;SDS011;68858;48.642;9.142;2023-10-31T06:01:35;0.80;;;0.80;;
79403;SDS011;68858;48.642;9.142;2023-10-31T06:04:01;0.70;;;0.70;;
79403;SDS011;68858;48.642;9.142;2023-10-31T06:06:27;1.13;;;0.90;;
79403;SDS011;68858;48.642;9.142;2023-10-31T06:08:53;1.97;;;0.90;;
79403;SDS011;68858;48.642;9.142;2023-10-31T06:11:18;1.97;;;0.90;;
79403;SDS011;68858;48.642;9.142;2023-10-31T06:13:43;1.20;;;0.90;;
79403;SDS011;68858;48.642;9.142;2023-10-31T06:16:09;1.00;;;0.87;;
79403;SDS011;68858;48.642;9.142;2023-10-31T06:18:37;2.73;;;0.80;;
79403;SDS011;68858;48.642;9.142;2023-10-31T06:21:03;0.60;;;0.60;;
79403;SDS011;68858;48.642;9.142;2023-10-31T06:23:29;0.70;;;0.70;;
79403;SDS011;68858;48.642;9.142;2023-10-31T06:25:54;1.37;;;0.80;;
79403;SDS011;68858;48.642;9.142;2023-10-31T06:28:20;0.73;;;0.70;;
79403;SDS011;68858;48.642;9.142;2023-10-31T06:30:45;1.17;;;0.80;;
79403;SDS011;68858;48.642;9.142;2023-10-31T06:33:11;0.57;;;0.50;;
79403;SDS011;68858;48.642;9.142;2023-10-31T06:35:36;1.50;;;0.60;;
79403;SDS011;68858;48.642;9.142;2023-10-31T06:38:02;1.40;;;0.70;;
79403;SDS011;68858;48.642;9.142;2023-10-31T06:40:28;1.10;;;0.80;;
79403;SDS011;68858;48.642;9.142;2023-10-31T06:42:53;1.60;;;0.70;;
79403;SDS011;68858;48.642;9.142;2023-10-31T06:45:18;0.80;;;0.80;;
79403;SDS011;68858;48.642;9.142;2023-10-31T06:47:44;1.27;;;0.60;;
79403;SDS011;68858;48.642;9.142;2023-10-31T06:50:10;0.70;;;0.70;;
79403;SDS011;68858;48.642;9.142;2023-10-31T06:52:35;0.50;;;0.40;;
79403;SDS011;68858;48.642;9.142;2023-10-31T06:55:01;1.10;;;1.00;;
79403;SDS011;68858;48.642;9.142;2023-10-31T06:57:26;0.80;;;0.70;;
79403;SDS011;68858;48.642;9.142;2023-10-31T06:59:52;1.63;;;0.90;;
79403;SDS011;68858;48.642;9.142;2023-10-31T07:02:17;1.30;;;0.80;;
79403;SDS011;68858;48.642;9.142;2023-10-31T07:04:43;1.53;;;0.93;;
79403;SDS011;68858;48.642;9.142;2023-10-31T07:07:08;0.83;;;0.80;;
79403;SDS011;68858;48.642;9.142;2023-10-31T07:09:34;0.60;;;0.60;;
79403;SDS011;68858;48.642;9.142;2023-10-31T07:11:59;1.00;;;0.90;;
79403;SDS011;68858;48.642;9.142;2023-10-31T07:14:24;1.70;;;0.70;;
79403;SDS011;68858;48.642;9.142;2023-10-31T07:16:50;1.00;;;0.70;;
79403;SDS011;68858;48.642;9.142;2023-10-31T07:19:15;2.17;;;0.87;;
79403;SDS011;68858;48.642;9.142;2023-10-31T07:21:41;1.63;;;1.00;;
79403;SDS011;68858;48.642;9.142;2023-10-31T07:24:06;2.27;;;1.20;;
79403;SDS011;68858;48.642;9.142;2023-10-31T07:26:34;1.07;;;0.73;;
79403;SDS011;68858;48.642;9.142;2023-10-31T07:28:59;2.50;;;0.90;;
79403;SDS011;68858;48.642;9.142;2023-10-31T07:31:25;0.80;;;0.70;;
79403;SDS011;68858;48.642;9.142;2023-10-31T07:33:50;1.20;;;0.97;;
79403;SDS011;68858;48.642;9.142;2023-10-31T07:36:15;1.17;;;0.83;;
79403;SDS011;68858;48.642;9.142;2023-10-31T07:38:41;2.00;;;0.80;;
79403;SDS011;68858;48.642;9.142;2023-10-31T07:41:06;2.17;;;0.80;;
79403;SDS011;68858;48.642;9.142;2023-10-31T07:43:32;1.70;;;0.90;;
79403;SDS011;68858;48.642;9.142;2023-10-31T07:45:57;0.77;;;0.77;;
79403;SDS011;68858;48.642;9.142;2023-10-31T07:48:23;1.07;;;0.80;;
79403;SDS011;68858;48.642;9.142;2023-10-31T07:50:48;1.10;;;1.00;;
79403;SDS011;68858;48.642;9.142;2023-10-31T07:53:14;1.03;;;0.90;;
79403;SDS011;68858;48.642;9.142;2023-10-31T07:55:39;2.13;;;1.00;;
79403;SDS011;68858;48.642;9.142;2023-10-31T07:58:05;1.20;;;0.90;;
79403;SDS011;68858;48.642;9.142;2023-10-31T08:00:31;1.57;;;0.93;;
79403;SDS011;68858;48.642;9.142;2023-10-31T08:02:57;1.80;;;0.80;;
79403;SDS011;68858;48.642;9.142;2023-10-31T08:05:23;1.00;;;0.90;;
79403;SDS011;68858;48.642;9.142;2023-10-31T08:07:48;1.33;;;0.93;;
79403;SDS011;68858;48.642;9.142;2023-10-31T08:10:14;0.97;;;0.80;;
79403;SDS011;68858;48.642;9.142;2023-10-31T08:12:40;1.63;;;0.80;;
79403;SDS011;68858;48.642;9.142;2023-10-31T08:15:05;1.93;;;0.90;;
79403;SDS011;68858;48.642;9.142;2023-10-31T08:17:31;1.63;;;0.97;;
79403;SDS011;68858;48.642;9.142;2023-10-31T08:19:56;2.60;;;1.20;;
79403;SDS011;68858;48.642;9.142;2023-10-31T08:22:22;1.70;;;0.67;;
79403;SDS011;68858;48.642;9.142;2023-10-31T08:24:47;1.00;;;0.90;;
79403;SDS011;68858;48.642;9.142;2023-10-31T08:27:13;0.90;;;0.80;;
79403;SDS011;68858;48.642;9.142;2023-10-31T08:29:39;0.83;;;0.80;;
79403;SDS011;68858;48.642;9.142;2023-10-31T08:32:04;1.87;;;0.90;;
79403;SDS011;68858;48.642;9.142;2023-10-31T08:34:30;1.97;;;0.93;;
79403;SDS011;68858;48.642;9.142;2023-10-31T08:36:56;1.90;;;1.07;;
79403;SDS011;68858;48.642;9.142;2023-10-31T08:39:23;1.87;;;1.23;;
79403;SDS011;68858;48.642;9.142;2023-10-31T08:41:49;2.63;;;1.00;;
79403;SDS011;68858;48.642;9.142;2023-10-31T08:44:16;3.37;;;1.20;;
79403;SDS011;68858;48.642;9.142;2023-10-31T08:46:41;1.63;;;1.20;;
79403;SDS011;68858;48.642;9.142;2023-10-31T08:49:07;1.33;;;1.00;;
79403;SDS011;68858;48.642;9.142;2023-10-31T08:51:35;1.23;;;0.80;;
79403;SDS011;68858;48.642;9.142;2023-10-31T08:54:00;3.20;;;1.20;;
79403;SDS011;68858;48.642;9.142;2023-10-31T08:56:26;1.37;;;1.03;;
79403;SDS011;68858;48.642;9.142;2023-10-31T08:58:52;1.53;;;0.90;;
79403;SDS011;68858;48.642;9.142;2023-10-31T09:01:18;1.57;;;0.90;;
79403;SDS011;68858;48.642;9.142;2023-10-31T09:03:44;1.70;;;1.00;;
79403;SDS011;68858;48.642;9.142;2023-10-31T09:06:09;1.27;;;0.83;;
79403;SDS011;68858;48.642;9.142;2023-10-31T09:08:35;2.83;;;0.90;;
79403;SDS011;68858;48.642;9.142;2023-10-31T09:11:02;2.17;;;1.10;;
79403;SDS011;68858;48.642;9.142;2023-10-31T09:13:28;3.10;;;0.90;;
79403;SDS011;68858;48.642;9.142;2023-10-31T09:15:54;3.13;;;1.10;;
79403;SDS011;68858;48.642;9.142;2023-10-31T09:18:19;1.37;;;0.80;;
79403;SDS011;68858;48.642;9.142;2023-10-31T09:20:45;1.30;;;1.00;;
79403;SDS011;68858;48.642;9.142;2023-10-31T09:23:10;3.33;;;1.17;;
79403;SDS011;68858;48.642;9.142;2023-10-31T09:25:35;2.37;;;0.97;;
79403;SDS011;68858;48.642;9.142;2023-10-31T09:28:01;2.47;;;1.20;;
79403;SDS011;68858;48.642;9.142;2023-10-31T09:30:27;1.50;;;0.90;;
79403;SDS011;68858;48.642;9.142;2023-10-31T09:32:52;1.90;;;0.97;;
79403;SDS011;68858;48.642;9.142;2023-10-31T09:35:18;2.00;;;1.00;;
79403;SDS011;68858;48.642;9.142;2023-10-31T09:37:43;2.10;;;0.90;;
79403;SDS011;68858;48.642;9.142;2023-10-31T09:40:10;2.77;;;0.90;;
79403;SDS011;68858;48.642;9.142;2023-10-31T09:42:35;4.03;;;1.00;;
79403;SDS011;68858;48.642;9.142;2023-10-31T09:45:01;3.67;;;1.20;;
79403;SDS011;68858;48.642;9.142;2023-10-31T09:47:27;3.10;;;1.20;;
79403;SDS011;68858;48.642;9.142;2023-10-31T09:49:54;1.63;;;1.10;;
79403;SDS011;68858;48.642;9.142;2023-10-31T09:52:20;2.43;;;1.30;;
79403;SDS011;68858;48.642;9.142;2023-10-31T09:54:46;3.30;;;1.33;;
79403;SDS011;68858;48.642;9.142;2023-10-31T09:57:13;3.37;;;1.23;;
79403;SDS011;68858;48.642;9.142;2023-10-31T09:59:39;2.40;;;1.20;;
79403;SDS011;68858;48.642;9.142;2023-10-31T10:02:05;2.70;;;1.30;;
79403;SDS011;68858;48.642;9.142;2023-10-31T10:04:30;2.53;;;1.17;;
79403;SDS011;68858;48.642;9.142;2023-10-31T10:06:59;1.80;;;1.10;;
79403;SDS011;68858;48.642;9.142;2023-10-31T10:09:26;2.93;;;1.00;;
79403;SDS011;68858;48.642;9.142;2023-10-31T10:11:52;3.30;;;1.33;;
79403;SDS011;68858;48.642;9.142;2023-10-31T10:14:18;2.17;;;1.00;;
79403;SDS011;68858;48.642;9.142;2023-10-31T10:16:43;3.53;;;1.30;;
79403;SDS011;68858;48.642;9.142;2023-10-31T10:19:19;2.90;;;1.20;;
79403;SDS011;68858;48.642;9.142;2023-10-31T10:21:46;2.47;;;1.23;;
79403;SDS011;68858;48.642;9.142;2023-10-31T10:24:16;1.40;;;1.00;;
79403;SDS011;68858;48.642;9.142;2023-10-31T10:26:42;2.50;;;1.40;;
79403;SDS011;68858;48.642;9.142;2023-10-31T10:29:08;2.60;;;1.20;;
79403;SDS011;68858;48.642;9.142;2023-10-31T10:31:34;1.67;;;1.00;;
79403;SDS011;68858;48.642;9.142;2023-10-31T10:33:59;2.43;;;1.13;;
79403;SDS011;68858;48.642;9.142;2023-10-31T10:36:26;1.77;;;1.00;;
79403;SDS011;68858;48.642;9.142;2023-10-31T10:38:55;2.80;;;1.10;;
79403;SDS011;68858;48.642;9.142;2023-10-31T10:41:22;1.80;;;1.03;;
79403;SDS011;68858;48.642;9.142;2023-10-31T10:43:50;2.70;;;1.20;;
79403;SDS011;68858;48.642;9.142;2023-10-31T10:46:20;1.47;;;1.10;;
79403;SDS011;68858;48.642;9.142;2023-10-31T10:48:47;2.70;;;0.90;;
79403;SDS011;68858;48.642;9.142;2023-10-31T10:51:21;4.73;;;1.50;;
79403;SDS011;68858;48.642;9.142;2023-10-31T10:54:03;3.40;;;1.17;;
79403;SDS011;68858;48.642;9.142;2023-10-31T10:56:39;3.30;;;1.20;;
79403;SDS011;68858;48.642;9.142;2023-10-31T10:59:13;3.47;;;1.40;;
79403;SDS011;68858;48.642;9.142;2023-10-31T11:01:41;4.50;;;1.43;;
79403;SDS011;68858;48.642;9.142;2023-10-31T11:04:07;3.97;;;1.50;;
79403;SDS011;68858;48.642;9.142;2023-10-31T11:06:33;4.80;;;1.40;;
79403;SDS011;68858;48.642;9.142;2023-10-31T11:09:00;3.40;;;1.30;;
79403;SDS011;68858;48.642;9.142;2023-10-31T11:11:25;3.23;;;1.20;;
79403;SDS011;68858;48.642;9.142;2023-10-31T11:13:52;2.63;;;1.10;;
79403;SDS011;68858;48.642;9.142;2023-10-31T11:16:18;2.13;;;1.13;;
79403;SDS011;68858;48.642;9.142;2023-10-31T11:18:47;2.00;;;1.23;;
79403;SDS011;68858;48.642;9.142;2023-10-31T11:21:13;1.10;;;1.00;;
79403;SDS011;68858;48.642;9.142;2023-10-31T11:23:38;2.20;;;1.30;;
79403;SDS011;68858;48.642;9.142;2023-10-31T11:26:06;1.90;;;1.13;;
79403;SDS011;68858;48.642;9.142;2023-10-31T11:28:33;1.93;;;0.97;;
79403;SDS011;68858;48.642;9.142;2023-10-31T11:31:00;2.17;;;1.00;;
79403;SDS011;68858;48.642;9.142;2023-10-31T11:33:27;1.70;;;0.90;;
79403;SDS011;68858;48.642;9.142;2023-10-31T11:36:03;2.43;;;0.63;;
79403;SDS011;68858;48.642;9.142;2023-10-31T11:38:33;2.17;;;1.00;;
79403;SDS011;68858;48.642;9.142;2023-10-31T11:41:01;1.37;;;0.80;;
79403;SDS011;68858;48.642;9.142;2023-10-31T11:46:04;0.97;;;0.80;;
79403;SDS011;68858;48.642;9.142;2023-10-31T11:48:50;0.80;;;0.80;;
79403;SDS011;68858;48.642;9.142;2023-10-31T11:51:16;1.43;;;0.90;;
79403;SDS011;68858;48.642;9.142;2023-10-31T11:53:42;1.17;;;0.87;;
79403;SDS011;68858;48.642;9.142;2023-10-31T11:56:09;1.90;;;0.97;;
79403;SDS011;68858;48.642;9.142;2023-10-31T11:58:36;1.87;;;1.20;;
79403;SDS011;68858;48.642;9.142;2023-10-31T12:01:03;1.53;;;0.90;;
79403;SDS011;68858;48.642;9.142;2023-10-31T12:03:36;1.27;;;0.70;;
79403;SDS011;68858;48.642;9.142;2023-10-31T12:06:05;2.10;;;0.60;;
79403;SDS011;68858;48.642;9.142;2023-10-31T12:08:32;1.53;;;1.00;;
79403;SDS011;68858;48.642;9.142;2023-10-31T12:11:11;1.17;;;0.90;;
79403;SDS011;68858;48.642;9.142;2023-10-31T12:13:38;2.10;;;0.80;;
79403;SDS011;68858;48.642;9.142;2023-10-31T12:16:05;1.47;;;0.70;;
79403;SDS011;68858;48.642;9.142;2023-10-31T12:18:33;0.93;;;0.47;;
79403;SDS011;68858;48.642;9.142;2023-10-31T12:20:59;1.77;;;0.67;;
79403;SDS011;68858;48.642;9.142;2023-10-31T12:23:24;0.53;;;0.43;;
79403;SDS011;68858;48.642;9.142;2023-10-31T12:25:50;0.90;;;0.40;;
79403;SDS011;68858;48.642;9.142;2023-10-31T12:28:17;1.10;;;0.60;;
79403;SDS011;68858;48.642;9.142;2023-10-31T12:30:46;1.57;;;0.70;;
79403;SDS011;68858;48.642;9.142;2023-10-31T12:33:15;0.67;;;0.50;;
79403;SDS011;68858;48.642;9.142;2023-10-31T12:35:41;1.03;;;0.60;;
79403;SDS011;68858;48.642;9.142;2023-10-31T12:38:07;1.00;;;0.70;;
79403;SDS011;68858;48.642;9.142;2023-10-31T12:40:35;1.00;;;0.80;;
79403;SDS011;68858;48.642;9.142;2023-10-31T12:43:01;1.37;;;0.80;;
79403;SDS011;68858;48.642;9.142;2023-10-31T12:45:28;1.40;;;0.90;;
79403;SDS011;68858;48.642;9.142;2023-10-31T12:48:00;0.93;;;0.80;;
79403;SDS011;68858;48.642;9.142;2023-10-31T12:50:30;3.77;;;1.43;;
79403;SDS011;68858;48.642;9.142;2023-10-31T12:52:56;1.80;;;0.87;;
79403;SDS011;68858;48.642;9.142;2023-10-31T12:55:26;2.00;;;1.20;;
79403;SDS011;68858;48.642;9.142;2023-10-31T12:57:53;1.00;;;0.60;;
79403;SDS011;68858;48.642;9.142;2023-10-31T13:00:19;2.10;;;0.70;;
79403;SDS011;68858;48.642;9.142;2023-10-31T13:02:52;0.87;;;0.50;;
79403;SDS011;68858;48.642;9.142;2023-10-31T13:05:18;0.63;;;0.50;;
79403;SDS011;68858;48.642;9.142;2023-10-31T13:07:51;1.33;;;0.80;;
79403;SDS011;68858;48.642;9.142;2023-10-31T13:10:17;1.07;;;0.60;;
79403;SDS011;68858;48.642;9.142;2023-10-31T13:12:44;2.20;;;0.80;;
79403;SDS011;68858;48.642;9.142;2023-10-31T13:15:12;0.93;;;0.73;;
79403;SDS011;68858;48.642;9.142;2023-10-31T13:17:38;0.70;;;0.60;;
79403;SDS011;68858;48.642;9.142;2023-10-31T13:20:07;0.83;;;0.50;;
79403;SDS011;68858;48.642;9.142;2023-10-31T13:22:34;1.53;;;0.80;;
79403;SDS011;68858;48.642;9.142;2023-10-31T13:25:01;1.27;;;0.77;;
79403;SDS011;68858;48.642;9.142;2023-10-31T13:27:29;0.70;;;0.50;;
79403;SDS011;68858;48.642;9.142;2023-10-31T13:29:57;1.47;;;0.70;;
79403;SDS011;68858;48.642;9.142;2023-10-31T13:32:22;1.03;;;0.73;;
79403;SDS011;68858;48.642;9.142;2023-10-31T13:34:48;3.17;;;0.93;;
79403;SDS011;68858;48.642;9.142;2023-10-31T13:37:13;2.57;;;0.80;;
79403;SDS011;68858;48.642;9.142;2023-10-31T13:39:39;2.10;;;0.63;;
79403;SDS011;68858;48.642;9.142;2023-10-31T13:42:05;3.60;;;0.80;;
79403;SDS011;68858;48.642;9.142;2023-10-31T13:44:30;2.20;;;0.70;;
79403;SDS011;68858;48.642;9.142;2023-10-31T13:46:56;0.93;;;0.80;;
79403;SDS011;68858;48.642;9.142;2023-10-31T13:49:21;2.30;;;0.90;;
79403;SDS011;68858;48.642;9.142;2023-10-31T13:51:46;1.57;;;0.67;;
79403;SDS011;68858;48.642;9.142;2023-10-31T13:54:13;1.07;;;0.70;;
79403;SDS011;68858;48.642;9.142;2023-10-31T13:56:39;1.77;;;0.90;;
79403;SDS011;68858;48.642;9.142;2023-10-31T13:59:04;1.17;;;0.70;;
79403;SDS011;68858;48.642;9.142;2023-10-31T14:01:30;0.93;;;0.47;;
79403;SDS011;68858;48.642;9.142;2023-10-31T14:03:55;0.43;;;0.43;;
79403;SDS011;68858;48.642;9.142;2023-10-31T14:06:21;0.77;;;0.40;;
79403;SDS011;68858;48.642;9.142;2023-10-31T14:08:47;2.00;;;0.60;;
79403;SDS011;68858;48.642;9.142;2023-10-31T14:11:12;1.27;;;0.70;;
79403;SDS011;68858;48.642;9.142;2023-10-31T14:13:37;1.00;;;0.50;;
79403;SDS011;68858;48.642;9.142;2023-10-31T14:16:03;0.30;;;0.30;;
79403;SDS011;68858;48.642;9.142;2023-10-31T14:18:29;0.37;;;0.37;;
79403;SDS011;68858;48.642;9.142;2023-10-31T14:20:54;0.40;;;0.40;;
79403;SDS011;68858;48.642;9.142;2023-10-31T14:23:20;1.27;;;0.60;;
79403;SDS011;68858;48.642;9.142;2023-10-31T14:25:45;0.77;;;0.53;;
79403;SDS011;68858;48.642;9.142;2023-10-31T14:28:11;1.07;;;0.50;;
79403;SDS011;68858;48.642;9.142;2023-10-31T14:30:36;0.63;;;0.40;;
79403;SDS011;68858;48.642;9.142;2023-10-31T14:33:02;0.53;;;0.50;;
79403;SDS011;68858;48.642;9.142;2023-10-31T14:35:27;1.33;;;0.70;;
79403;SDS011;68858;48.642;9.142;2023-10-31T14:37:53;0.80;;;0.57;;
79403;SDS011;68858;48.642;9.142;2023-10-31T14:40:18;0.90;;;0.50;;
79403;SDS011;68858;48.642;9.142;2023-10-31T14:42:44;0.50;;;0.50;;
79403;SDS011;68858;48.642;9.142;2023-10-31T14:45:09;0.70;;;0.53;;